Time;durP1;ratioP1;P1;durP2;ratioP2;P2;SDS_P1;SDS_P2;PMS_P1;PMS_P2;Temp;Humidity;BMP_temperature;BMP_pressure;BME280_temperature;BME280_humidity;BME280_pressure;Samples;Min_cycle;Max_cycle;Signal;HPM_P1;HPM_P2
2021/11/24 00:00:30;;;;;;;42.77;23.67;;;;;;;;;;4998428;28;20281;-72
2021/11/24 00:02:55;;;;;;;44.17;23.03;;;;;;;;;;5007414;28;20264;-72
2021/11/24 00:05:21;;;;;;;44.83;23.93;;;;;;;;;;4993315;28;20308;-72
2021/11/24 00:07:47;;;;;;;40.40;23.52;;;;;;;;;;5007316;28;20230;-72
2021/11/24 00:10:17;;;;;;;37.77;23.57;;;;;;;;;;4998226;28;20199;-72
2021/11/24 00:12:42;;;;;;;38.27;22.27;;;;;;;;;;5001909;28;20190;-72
2021/11/24 00:15:09;;;;;;;39.83;23.63;;;;;;;;;;4996687;28;20550;-72
2021/11/24 00:17:35;;;;;;;39.43;23.03;;;;;;;;;;5008479;28;20198;-73
2021/11/24 00:20:00;;;;;;;41.13;24.40;;;;;;;;;;5000933;28;20179;-73
2021/11/24 00:22:26;;;;;;;36.03;21.73;;;;;;;;;;5001800;28;20200;-73
2021/11/24 00:24:51;;;;;;;39.60;22.67;;;;;;;;;;4994433;28;20197;-72
2021/11/24 00:27:16;;;;;;;36.57;22.43;;;;;;;;;;5004461;28;20206;-73
2021/11/24 00:29:42;;;;;;;35.77;22.60;;;;;;;;;;5002897;28;20617;-75
2021/11/24 00:32:07;;;;;;;37.03;22.50;;;;;;;;;;4998351;28;20183;-75
2021/11/24 00:34:34;;;;;;;34.57;22.13;;;;;;;;;;5008451;28;20258;-75
2021/11/24 00:37:00;;;;;;;32.73;22.43;;;;;;;;;;4998005;28;20195;-75
2021/11/24 00:39:25;;;;;;;36.00;22.33;;;;;;;;;;5008104;28;20270;-75
2021/11/24 00:41:51;;;;;;;31.50;20.73;;;;;;;;;;4996116;28;20218;-75
2021/11/24 00:44:16;;;;;;;33.37;22.20;;;;;;;;;;5001167;28;20182;-75
2021/11/24 00:46:43;;;;;;;35.65;21.85;;;;;;;;;;4999164;28;20345;-74
2021/11/24 00:49:09;;;;;;;31.00;21.50;;;;;;;;;;5008379;28;20237;-73
2021/11/24 00:51:35;;;;;;;30.70;20.73;;;;;;;;;;4997309;28;20280;-72
2021/11/24 00:54:00;;;;;;;32.47;22.20;;;;;;;;;;5010521;28;20639;-72
2021/11/24 00:56:26;;;;;;;34.40;22.03;;;;;;;;;;4994676;28;20349;-72
2021/11/24 00:58:51;;;;;;;33.07;21.67;;;;;;;;;;5007621;28;20218;-72
2021/11/24 01:01:16;;;;;;;30.93;20.77;;;;;;;;;;5004623;28;20191;-72
2021/11/24 01:03:42;;;;;;;29.67;20.90;;;;;;;;;;4994937;28;20277;-72
2021/11/24 01:06:07;;;;;;;32.87;20.50;;;;;;;;;;5001345;28;20637;-72
2021/11/24 01:08:33;;;;;;;38.33;18.37;;;;;;;;;;4999520;28;20629;-72
2021/11/24 01:10:59;;;;;;;34.63;20.13;;;;;;;;;;5003737;28;20554;-72
2021/11/24 01:13:25;;;;;;;32.67;19.47;;;;;;;;;;4997106;28;20214;-72
2021/11/24 01:15:50;;;;;;;29.13;18.87;;;;;;;;;;5007174;28;20646;-72
2021/11/24 01:18:17;;;;;;;34.23;19.77;;;;;;;;;;5003642;28;20193;-72
2021/11/24 01:20:42;;;;;;;54.70;20.13;;;;;;;;;;5004813;28;20187;-72
2021/11/24 01:23:08;;;;;;;43.37;21.83;;;;;;;;;;4993368;28;20193;-71
2021/11/24 01:25:33;;;;;;;53.17;21.57;;;;;;;;;;5007597;28;20198;-72
2021/11/24 01:27:59;;;;;;;78.83;23.23;;;;;;;;;;4997562;28;20225;-71
2021/11/24 01:30:25;;;;;;;161.23;28.10;;;;;;;;;;5003844;28;20666;-72
2021/11/24 01:32:51;;;;;;;170.80;28.50;;;;;;;;;;5008276;28;20197;-71
2021/11/24 01:35:16;;;;;;;99.73;23.87;;;;;;;;;;4995652;28;20191;-71
2021/11/24 01:37:42;;;;;;;42.67;20.67;;;;;;;;;;5006260;28;20566;-70
2021/11/24 01:40:08;;;;;;;34.43;19.90;;;;;;;;;;4997531;28;21054;-71
2021/11/24 01:42:34;;;;;;;43.50;19.77;;;;;;;;;;5005194;28;20273;-70
2021/11/24 01:45:00;;;;;;;92.73;23.37;;;;;;;;;;4999685;28;20363;-71
2021/11/24 01:47:25;;;;;;;77.73;20.07;;;;;;;;;;5004931;28;20265;-70
2021/11/24 01:49:51;;;;;;;104.67;24.37;;;;;;;;;;4992057;28;20761;-70
2021/11/24 01:52:16;;;;;;;224.87;31.90;;;;;;;;;;5000074;28;20633;-70
2021/11/24 01:54:43;;;;;;;91.43;26.40;;;;;;;;;;4999666;28;20542;-70
2021/11/24 01:57:08;;;;;;;64.30;24.60;;;;;;;;;;5003297;28;20226;-70
2021/11/24 01:59:34;;;;;;;90.27;26.80;;;;;;;;;;4994816;28;20211;-70
2021/11/24 02:01:59;;;;;;;40.90;20.43;;;;;;;;;;5004470;28;20610;-70
2021/11/24 02:04:25;;;;;;;51.20;25.23;;;;;;;;;;5013516;28;20207;-70
2021/11/24 02:06:52;;;;;;;43.70;23.97;;;;;;;;;;4994573;28;20608;-70
2021/11/24 02:09:20;;;;;;;36.70;23.83;;;;;;;;;;5010806;28;20207;-70
2021/11/24 02:11:46;;;;;;;44.17;23.80;;;;;;;;;;4996866;28;20205;-70
2021/11/24 02:14:13;;;;;;;37.83;21.23;;;;;;;;;;5002260;28;20198;-70
2021/11/24 02:16:43;;;;;;;36.63;22.60;;;;;;;;;;4995956;28;20191;-70
2021/11/24 02:19:09;;;;;;;37.37;22.07;;;;;;;;;;5003735;28;20185;-70
2021/11/24 02:21:35;;;;;;;27.30;19.60;;;;;;;;;;4995784;28;20202;-70
2021/11/24 02:24:01;;;;;;;29.17;20.13;;;;;;;;;;5005420;28;20202;-70
2021/11/24 02:26:26;;;;;;;27.47;20.03;;;;;;;;;;4995478;28;20750;-70
2021/11/24 02:28:52;;;;;;;30.57;20.90;;;;;;;;;;5003279;28;20678;-70
2021/11/24 02:31:21;;;;;;;28.43;20.77;;;;;;;;;;5001755;28;20330;-70
2021/11/24 02:33:49;;;;;;;28.80;20.47;;;;;;;;;;5005874;28;20220;-70
2021/11/24 02:36:15;;;;;;;26.83;19.67;;;;;;;;;;5010320;28;20189;-70
2021/11/24 02:38:40;;;;;;;28.83;20.67;;;;;;;;;;4998736;28;20191;-70
2021/11/24 02:41:05;;;;;;;29.87;20.30;;;;;;;;;;5007627;28;20341;-70
2021/11/24 02:43:31;;;;;;;27.23;19.03;;;;;;;;;;4998111;28;20220;-70
2021/11/24 02:45:56;;;;;;;30.37;18.97;;;;;;;;;;5001766;28;20228;-70
2021/11/24 02:48:22;;;;;;;31.87;20.73;;;;;;;;;;4997591;28;20261;-70
2021/11/24 02:50:47;;;;;;;29.80;18.60;;;;;;;;;;5009953;28;20183;-70
2021/11/24 02:53:12;;;;;;;28.80;19.97;;;;;;;;;;4999034;28;20264;-70
2021/11/24 02:55:38;;;;;;;29.57;19.50;;;;;;;;;;5002057;28;20199;-70
2021/11/24 02:58:03;;;;;;;26.93;19.33;;;;;;;;;;4998758;28;20186;-70
2021/11/24 03:00:30;;;;;;;29.93;19.03;;;;;;;;;;5002483;28;20308;-70
2021/11/24 03:02:55;;;;;;;125.60;23.73;;;;;;;;;;4998256;28;20199;-70
2021/11/24 03:05:25;;;;;;;37.17;20.53;;;;;;;;;;5006724;28;20198;-70
2021/11/24 03:07:51;;;;;;;47.33;22.20;;;;;;;;;;5003701;28;20629;-70
2021/11/24 03:10:17;;;;;;;103.70;23.17;;;;;;;;;;5001003;28;20229;-69
2021/11/24 03:12:43;;;;;;;136.27;24.33;;;;;;;;;;5004792;28;20191;-69
2021/11/24 03:15:09;;;;;;;223.13;29.27;;;;;;;;;;4994725;28;20551;-69
2021/11/24 03:17:34;;;;;;;184.43;26.10;;;;;;;;;;5005153;28;20206;-69
2021/11/24 03:20:00;;;;;;;189.93;26.60;;;;;;;;;;4999105;28;20205;-70
2021/11/24 03:22:26;;;;;;;210.00;28.07;;;;;;;;;;5003910;28;20233;-69
2021/11/24 03:24:55;;;;;;;168.67;23.47;;;;;;;;;;5003061;28;20653;-70
2021/11/24 03:27:26;;;;;;;150.90;24.73;;;;;;;;;;5002810;28;20186;-69
2021/11/24 03:29:52;;;;;;;220.10;28.20;;;;;;;;;;5000619;28;20740;-70
2021/11/24 03:32:18;;;;;;;106.20;20.87;;;;;;;;;;5002952;28;20191;-69
2021/11/24 03:34:44;;;;;;;191.27;27.60;;;;;;;;;;4991984;28;20226;-69
2021/11/24 03:37:09;;;;;;;105.93;22.40;;;;;;;;;;5009189;28;20226;-70
2021/11/24 03:39:35;;;;;;;51.60;19.43;;;;;;;;;;4997358;28;20927;-70
2021/11/24 03:42:00;;;;;;;52.70;19.57;;;;;;;;;;5007839;28;20266;-69
2021/11/24 03:44:26;;;;;;;44.53;19.53;;;;;;;;;;5008295;28;20738;-69
2021/11/24 03:46:51;;;;;;;100.50;22.00;;;;;;;;;;4999330;28;20675;-70
2021/11/24 03:49:16;;;;;;;58.13;19.60;;;;;;;;;;5009071;28;20684;-70
2021/11/24 03:51:41;;;;;;;123.90;22.00;;;;;;;;;;5003649;28;20209;-70
2021/11/24 03:54:07;;;;;;;41.77;18.17;;;;;;;;;;5006123;28;20266;-70
2021/11/24 03:56:32;;;;;;;57.17;19.00;;;;;;;;;;5001885;28;20332;-69
2021/11/24 03:58:58;;;;;;;42.77;18.03;;;;;;;;;;5006874;28;20496;-70
2021/11/24 04:01:23;;;;;;;139.23;25.60;;;;;;;;;;4999145;28;20201;-70
2021/11/24 04:03:49;;;;;;;51.90;19.47;;;;;;;;;;5005212;28;20601;-70
2021/11/24 04:06:15;;;;;;;54.47;18.87;;;;;;;;;;5000246;28;20583;-70
2021/11/24 04:08:40;;;;;;;41.53;19.80;;;;;;;;;;5006237;28;20214;-70
2021/11/24 04:11:06;;;;;;;30.17;19.70;;;;;;;;;;5003665;28;20244;-70
2021/11/24 04:13:31;;;;;;;34.87;19.23;;;;;;;;;;4999552;28;20194;-70
2021/11/24 04:15:57;;;;;;;38.73;20.17;;;;;;;;;;5008071;28;20179;-70
2021/11/24 04:18:22;;;;;;;43.67;20.77;;;;;;;;;;4997026;28;20641;-70
2021/11/24 04:20:47;;;;;;;41.30;21.03;;;;;;;;;;5001421;28;20194;-70
2021/11/24 04:23:13;;;;;;;37.60;17.50;;;;;;;;;;4995380;28;20686;-70
2021/11/24 04:25:39;;;;;;;40.80;21.57;;;;;;;;;;5011638;28;20656;-70
2021/11/24 04:28:04;;;;;;;33.07;19.60;;;;;;;;;;4997367;28;20245;-71
2021/11/24 04:30:30;;;;;;;37.20;19.17;;;;;;;;;;5009940;28;20558;-70
2021/11/24 04:32:55;;;;;;;40.03;17.97;;;;;;;;;;4992388;28;20586;-70
2021/11/24 04:35:20;;;;;;;30.73;17.73;;;;;;;;;;5014927;28;20223;-70
2021/11/24 04:37:47;;;;;;;32.53;17.33;;;;;;;;;;4996323;28;20188;-70
2021/11/24 04:40:13;;;;;;;26.23;15.87;;;;;;;;;;5014447;28;20214;-70
2021/11/24 04:42:40;;;;;;;37.07;15.60;;;;;;;;;;5002320;28;20770;-70
2021/11/24 04:45:06;;;;;;;28.73;15.10;;;;;;;;;;5000872;28;20186;-70
2021/11/24 04:47:32;;;;;;;48.03;17.27;;;;;;;;;;5008035;28;20235;-70
2021/11/24 04:49:57;;;;;;;70.53;17.80;;;;;;;;;;4995067;28;20212;-70
2021/11/24 04:52:22;;;;;;;26.73;15.80;;;;;;;;;;5006571;28;20541;-70
2021/11/24 04:54:48;;;;;;;52.57;16.47;;;;;;;;;;4998681;28;20186;-70
2021/11/24 04:57:13;;;;;;;63.40;16.27;;;;;;;;;;5014980;28;20186;-70
2021/11/24 04:59:40;;;;;;;66.07;15.90;;;;;;;;;;4995611;28;20323;-70
2021/11/24 05:02:05;;;;;;;148.37;19.37;;;;;;;;;;5013673;28;20178;-70
2021/11/24 05:04:31;;;;;;;50.60;14.83;;;;;;;;;;5001732;28;20205;-70
2021/11/24 05:06:56;;;;;;;129.53;17.90;;;;;;;;;;5010432;28;20218;-70
2021/11/24 05:09:21;;;;;;;94.83;16.23;;;;;;;;;;5002878;28;20560;-70
2021/11/24 05:11:47;;;;;;;93.87;18.77;;;;;;;;;;5015669;28;20186;-70
2021/11/24 05:14:19;;;;;;;57.97;15.93;;;;;;;;;;5005054;28;20298;-70
2021/11/24 05:16:47;;;;;;;55.53;15.43;;;;;;;;;;4997864;28;20743;-70
2021/11/24 05:19:18;;;;;;;44.10;13.87;;;;;;;;;;5004638;28;20195;-70
2021/11/24 05:21:45;;;;;;;39.77;13.70;;;;;;;;;;4995469;28;20183;-70
2021/11/24 05:24:10;;;;;;;44.13;13.37;;;;;;;;;;5002091;28;20190;-70
2021/11/24 05:26:37;;;;;;;40.03;14.20;;;;;;;;;;5002265;28;20186;-70
2021/11/24 05:29:03;;;;;;;31.30;14.23;;;;;;;;;;5003688;28;20210;-70
2021/11/24 05:31:28;;;;;;;46.50;13.40;;;;;;;;;;4999377;28;20209;-70
2021/11/24 05:33:54;;;;;;;24.93;13.90;;;;;;;;;;4999715;28;20236;-70
2021/11/24 05:36:21;;;;;;;25.97;13.33;;;;;;;;;;4984660;28;20197;-70
2021/11/24 05:38:47;;;;;;;20.37;12.40;;;;;;;;;;5004190;28;20183;-70
2021/11/24 05:41:13;;;;;;;27.57;13.93;;;;;;;;;;5008291;28;20646;-70
2021/11/24 05:43:38;;;;;;;18.80;13.70;;;;;;;;;;5002893;28;20186;-70
2021/11/24 05:46:13;;;;;;;20.97;13.33;;;;;;;;;;5005438;28;20205;-70
2021/11/24 05:48:39;;;;;;;22.67;13.10;;;;;;;;;;4994366;28;20703;-70
2021/11/24 05:51:05;;;;;;;23.70;13.87;;;;;;;;;;4997878;28;20192;-69
2021/11/24 05:53:31;;;;;;;26.50;14.17;;;;;;;;;;4994275;28;20474;-69
2021/11/24 05:55:58;;;;;;;31.00;15.80;;;;;;;;;;5007448;28;20199;-70
2021/11/24 05:58:25;;;;;;;33.23;15.20;;;;;;;;;;4992235;28;20183;-70
2021/11/24 06:00:50;;;;;;;21.03;13.77;;;;;;;;;;5001393;28;20244;-70
2021/11/24 06:03:17;;;;;;;17.00;12.00;;;;;;;;;;4994667;28;20565;-70
2021/11/24 06:05:42;;;;;;;22.10;12.77;;;;;;;;;;5000766;28;20230;-70
2021/11/24 06:08:08;;;;;;;18.43;12.37;;;;;;;;;;4995316;28;20267;-70
2021/11/24 06:10:33;;;;;;;29.27;14.67;;;;;;;;;;5005146;28;20805;-69
2021/11/24 06:12:59;;;;;;;25.30;13.00;;;;;;;;;;5000076;28;20321;-70
2021/11/24 06:15:24;;;;;;;41.57;15.43;;;;;;;;;;5004409;28;20187;-70
2021/11/24 06:17:50;;;;;;;26.30;15.13;;;;;;;;;;5012267;28;20190;-70
2021/11/24 06:20:16;;;;;;;37.10;15.33;;;;;;;;;;4998846;28;20183;-70
2021/11/24 06:22:43;;;;;;;38.70;15.20;;;;;;;;;;5006461;28;20299;-70
2021/11/24 06:25:11;;;;;;;26.97;14.63;;;;;;;;;;4996446;28;20237;-70
2021/11/24 06:27:37;;;;;;;19.03;12.93;;;;;;;;;;5019902;28;20222;-70
2021/11/24 06:30:03;;;;;;;32.97;14.33;;;;;;;;;;4998963;28;20238;-70
2021/11/24 06:32:28;;;;;;;23.30;13.13;;;;;;;;;;5009603;28;20191;-70
2021/11/24 06:34:54;;;;;;;28.80;14.40;;;;;;;;;;5000824;28;20215;-70
2021/11/24 06:37:19;;;;;;;68.90;16.57;;;;;;;;;;5015244;28;20198;-70
2021/11/24 06:39:44;;;;;;;36.70;15.33;;;;;;;;;;4999063;28;20175;-70
2021/11/24 06:42:10;;;;;;;26.63;12.87;;;;;;;;;;5010101;28;20187;-70
2021/11/24 06:44:35;;;;;;;21.83;13.30;;;;;;;;;;4997192;28;20614;-70
2021/11/24 06:47:00;;;;;;;23.67;11.57;;;;;;;;;;5001603;28;20194;-70
2021/11/24 06:49:26;;;;;;;26.80;14.30;;;;;;;;;;5007705;28;20214;-70
2021/11/24 06:51:51;;;;;;;31.13;14.13;;;;;;;;;;4999681;28;20272;-70
2021/11/24 06:54:17;;;;;;;21.10;13.87;;;;;;;;;;5010657;28;20194;-70
2021/11/24 06:56:48;;;;;;;25.10;14.30;;;;;;;;;;4996245;28;20563;-70
2021/11/24 06:59:14;;;;;;;23.63;14.17;;;;;;;;;;5006014;28;20245;-70
2021/11/24 07:01:39;;;;;;;19.67;12.03;;;;;;;;;;4996478;28;20627;-70
2021/11/24 07:04:04;;;;;;;25.50;13.80;;;;;;;;;;5007863;28;20191;-70
2021/11/24 07:06:30;;;;;;;25.67;13.43;;;;;;;;;;4996612;28;20239;-70
2021/11/24 07:08:55;;;;;;;24.43;13.60;;;;;;;;;;5007055;28;20244;-70
2021/11/24 07:11:23;;;;;;;23.07;12.33;;;;;;;;;;4647784;28;10000459;-70
2021/11/24 07:13:49;;;;;;;18.87;12.67;;;;;;;;;;5005394;28;20285;-70
2021/11/24 07:16:14;;;;;;;15.97;11.00;;;;;;;;;;4998681;28;20324;-70
2021/11/24 07:18:39;;;;;;;13.30;9.97;;;;;;;;;;4999451;28;20183;-70
2021/11/24 07:21:05;;;;;;;16.30;10.47;;;;;;;;;;4999798;28;20659;-70
2021/11/24 07:23:30;;;;;;;14.10;10.40;;;;;;;;;;4996916;28;20344;-70
2021/11/24 07:25:55;;;;;;;13.80;10.37;;;;;;;;;;5004255;28;20611;-71
2021/11/24 07:28:21;;;;;;;15.50;10.07;;;;;;;;;;4995448;28;20728;-71
2021/11/24 07:30:46;;;;;;;13.57;9.67;;;;;;;;;;4997906;28;20556;-71
2021/11/24 07:33:11;;;;;;;13.63;10.27;;;;;;;;;;4990546;28;20698;-71
2021/11/24 07:35:37;;;;;;;13.47;9.20;;;;;;;;;;5000205;28;20650;-70
2021/11/24 07:38:02;;;;;;;14.13;10.13;;;;;;;;;;4998404;28;20191;-70
2021/11/24 07:40:28;;;;;;;15.23;10.17;;;;;;;;;;4999887;28;20198;-70
2021/11/24 07:42:54;;;;;;;14.53;8.87;;;;;;;;;;4993294;28;20183;-70
2021/11/24 07:45:19;;;;;;;15.27;9.00;;;;;;;;;;5003893;28;20269;-70
2021/11/24 07:47:44;;;;;;;14.27;9.90;;;;;;;;;;4996807;28;20225;-70
2021/11/24 07:50:10;;;;;;;13.00;9.80;;;;;;;;;;5000700;28;20280;-70
2021/11/24 07:52:36;;;;;;;13.20;9.70;;;;;;;;;;4998022;28;20603;-70
2021/11/24 07:55:02;;;;;;;13.07;9.10;;;;;;;;;;4997189;28;20316;-70
2021/11/24 07:57:28;;;;;;;15.20;8.70;;;;;;;;;;5004553;28;20186;-70
2021/11/24 07:59:54;;;;;;;15.63;9.50;;;;;;;;;;4997234;28;20646;-70
2021/11/24 08:02:19;;;;;;;15.40;10.17;;;;;;;;;;5006717;28;20182;-70
2021/11/24 08:04:45;;;;;;;15.33;11.03;;;;;;;;;;4999748;28;20187;-70
2021/11/24 08:07:10;;;;;;;14.90;9.70;;;;;;;;;;5007913;28;20222;-70
2021/11/24 08:09:36;;;;;;;16.70;9.50;;;;;;;;;;4999318;28;20198;-70
2021/11/24 08:12:01;;;;;;;15.13;10.23;;;;;;;;;;5012102;28;20187;-70
2021/11/24 08:14:27;;;;;;;19.47;11.73;;;;;;;;;;5000235;28;20646;-69
2021/11/24 08:16:53;;;;;;;17.83;10.50;;;;;;;;;;5008688;28;20243;-70
2021/11/24 08:19:19;;;;;;;19.07;11.97;;;;;;;;;;5000786;28;20183;-70
2021/11/24 08:21:44;;;;;;;18.53;11.47;;;;;;;;;;5012658;28;20201;-70
2021/11/24 08:24:10;;;;;;;17.80;11.47;;;;;;;;;;5008302;28;20183;-70
2021/11/24 08:26:36;;;;;;;18.93;11.50;;;;;;;;;;5000897;28;20199;-70
2021/11/24 08:29:02;;;;;;;20.83;11.73;;;;;;;;;;5016737;28;20210;-71
2021/11/24 08:31:27;;;;;;;15.77;10.13;;;;;;;;;;4997692;28;20293;-70
2021/11/24 08:33:53;;;;;;;15.83;11.53;;;;;;;;;;5006893;28;20186;-70
2021/11/24 08:36:18;;;;;;;19.40;12.17;;;;;;;;;;5001106;28;20198;-71
2021/11/24 08:38:44;;;;;;;14.83;11.00;;;;;;;;;;5007413;28;20182;-72
2021/11/24 08:41:12;;;;;;;14.87;10.27;;;;;;;;;;4997273;28;20198;-70
2021/11/24 08:43:38;;;;;;;14.13;10.47;;;;;;;;;;5009219;28;20178;-71
2021/11/24 08:46:04;;;;;;;14.03;9.93;;;;;;;;;;4996269;28;20650;-71
2021/11/24 08:48:29;;;;;;;13.20;9.43;;;;;;;;;;5018504;28;20212;-70
2021/11/24 08:50:55;;;;;;;16.13;10.07;;;;;;;;;;4996993;28;20266;-71
2021/11/24 08:53:22;;;;;;;13.97;9.60;;;;;;;;;;5001469;28;20640;-70
2021/11/24 08:55:48;;;;;;;11.67;8.80;;;;;;;;;;5004282;28;20612;-74
2021/11/24 08:58:13;;;;;;;12.13;10.03;;;;;;;;;;5007171;28;20174;-71
2021/11/24 09:00:39;;;;;;;15.77;11.43;;;;;;;;;;5006511;28;20213;-71
2021/11/24 09:03:05;;;;;;;13.93;10.23;;;;;;;;;;4999264;28;20193;-71
2021/11/24 09:05:31;;;;;;;15.43;10.40;;;;;;;;;;5004367;28;20357;-69
2021/11/24 09:07:58;;;;;;;14.20;10.30;;;;;;;;;;4996193;28;20266;-70
2021/11/24 09:10:26;;;;;;;15.50;9.87;;;;;;;;;;5005903;28;20218;-70
2021/11/24 09:12:52;;;;;;;13.33;10.63;;;;;;;;;;5005162;28;20191;-71
2021/11/24 09:15:18;;;;;;;14.70;10.63;;;;;;;;;;5006674;28;20182;-71
2021/11/24 09:17:43;;;;;;;17.17;10.33;;;;;;;;;;4998586;28;20218;-71
2021/11/24 09:20:09;;;;;;;13.97;10.20;;;;;;;;;;5006359;28;20607;-71
2021/11/24 09:22:38;;;;;;;17.00;10.67;;;;;;;;;;5008897;28;20218;-71
2021/11/24 09:25:04;;;;;;;14.30;10.20;;;;;;;;;;5005169;28;20182;-70
2021/11/24 09:27:32;;;;;;;12.90;9.10;;;;;;;;;;5004719;28;20249;-70
2021/11/24 09:29:59;;;;;;;12.47;8.70;;;;;;;;;;4999621;28;20222;-70
2021/11/24 09:32:25;;;;;;;10.87;8.67;;;;;;;;;;5002120;28;20642;-70
2021/11/24 09:34:51;;;;;;;10.33;8.03;;;;;;;;;;4996874;28;20284;-70
2021/11/24 09:37:16;;;;;;;10.30;7.53;;;;;;;;;;5007477;28;20277;-70
2021/11/24 09:39:42;;;;;;;10.43;8.23;;;;;;;;;;5000229;28;20205;-70
2021/11/24 09:42:09;;;;;;;11.87;8.47;;;;;;;;;;5003823;28;20272;-70
2021/11/24 09:44:34;;;;;;;10.07;8.33;;;;;;;;;;5004236;28;20284;-70
2021/11/24 09:47:01;;;;;;;8.33;7.17;;;;;;;;;;5006543;28;20281;-70
2021/11/24 09:49:27;;;;;;;9.27;7.43;;;;;;;;;;5001328;28;20219;-70
2021/11/24 09:51:53;;;;;;;10.35;7.25;;;;;;;;;;5004685;28;20202;-70
2021/11/24 09:54:19;;;;;;;11.80;6.80;;;;;;;;;;5000045;28;20197;-70
2021/11/24 09:56:46;;;;;;;6.43;5.07;;;;;;;;;;5003031;28;20203;-70
2021/11/24 09:59:13;;;;;;;7.13;4.35;;;;;;;;;;4994866;28;20630;-70
2021/11/24 10:01:39;;;;;;;7.43;5.70;;;;;;;;;;5003659;28;20324;-70
2021/11/24 10:04:05;;;;;;;4.55;3.83;;;;;;;;;;5002542;28;20204;-70
2021/11/24 10:06:34;;;;;;;6.32;4.65;;;;;;;;;;4993606;28;20223;-70
2021/11/24 10:09:01;;;;;;;5.55;4.80;;;;;;;;;;5006667;28;20221;-70
2021/11/24 10:11:27;;;;;;;5.13;4.03;;;;;;;;;;4994202;28;20183;-70
2021/11/24 10:13:53;;;;;;;8.25;4.68;;;;;;;;;;5005615;28;20197;-70
2021/11/24 10:16:25;;;;;;;5.68;4.13;;;;;;;;;;4996438;28;20646;-70
2021/11/24 10:19:06;;;;;;;5.78;4.43;;;;;;;;;;5002915;28;20187;-70
2021/11/24 10:21:33;;;;;;;5.63;4.60;;;;;;;;;;4995894;28;20447;-70
2021/11/24 10:24:04;;;;;;;6.25;4.72;;;;;;;;;;5003662;28;20206;-70
2021/11/24 10:26:38;;;;;;;4.93;4.38;;;;;;;;;;4996706;28;20201;-70
2021/11/24 10:29:13;;;;;;;8.13;5.25;;;;;;;;;;5004958;28;20233;-70
2021/11/24 10:31:53;;;;;;;5.32;4.70;;;;;;;;;;4999624;28;20200;-70
2021/11/24 10:34:29;;;;;;;6.40;4.90;;;;;;;;;;5000600;28;20206;-70
2021/11/24 10:36:54;;;;;;;8.38;5.20;;;;;;;;;;4997429;28;20252;-70
2021/11/24 10:39:21;;;;;;;6.20;4.82;;;;;;;;;;5000541;28;20616;-70
2021/11/24 10:41:47;;;;;;;5.22;4.22;;;;;;;;;;4996145;28;20417;-70
2021/11/24 10:44:26;;;;;;;5.47;4.47;;;;;;;;;;5000848;28;20199;-70
2021/11/24 10:46:55;;;;;;;4.75;3.97;;;;;;;;;;4994653;28;20567;-69
2021/11/24 10:49:50;;;;;;;5.38;4.13;;;;;;;;;;5000952;28;20212;-69
2021/11/24 10:52:22;;;;;;;4.28;3.72;;;;;;;;;;4992165;28;20196;-69
2021/11/24 10:55:07;;;;;;;5.63;3.80;;;;;;;;;;5007037;28;20285;-70
2021/11/24 10:57:36;;;;;;;6.78;4.13;;;;;;;;;;4995591;28;20195;-69
2021/11/24 11:00:13;;;;;;;3.05;2.65;;;;;;;;;;5008689;28;20179;-70
2021/11/24 11:02:40;;;;;;;4.97;3.10;;;;;;;;;;4998891;28;20529;-69
2021/11/24 11:05:05;;;;;;;3.35;2.90;;;;;;;;;;5005009;28;20251;-69
2021/11/24 11:07:33;;;;;;;3.40;2.40;;;;;;;;;;5001203;28;20226;-69
2021/11/24 11:10:08;;;;;;;2.95;2.25;;;;;;;;;;5011072;28;20578;-70
2021/11/24 11:12:35;;;;;;;2.58;2.38;;;;;;;;;;5009021;28;20212;-69
2021/11/24 11:15:12;;;;;;;3.10;2.80;;;;;;;;;;5005776;28;20186;-69
2021/11/24 11:18:01;;;;;;;3.30;2.40;;;;;;;;;;5007833;28;20622;-69
2021/11/24 11:20:36;;;;;;;6.88;2.88;;;;;;;;;;5000401;28;20822;-69
2021/11/24 11:23:08;;;;;;;3.97;2.65;;;;;;;;;;5015719;28;20173;-69
2021/11/24 11:25:35;;;;;;;4.35;2.75;;;;;;;;;;5003870;28;20186;-69
2021/11/24 11:28:01;;;;;;;3.00;2.55;;;;;;;;;;5021009;28;20634;-69
2021/11/24 11:30:28;;;;;;;4.43;2.42;;;;;;;;;;4997354;28;20190;-70
2021/11/24 11:32:55;;;;;;;2.92;2.53;;;;;;;;;;5018958;28;20190;-70
2021/11/24 11:35:22;;;;;;;3.72;2.65;;;;;;;;;;4995560;28;20191;-69
2021/11/24 11:37:48;;;;;;;3.07;2.43;;;;;;;;;;5016259;28;20325;-70
2021/11/24 11:40:17;;;;;;;2.85;1.98;;;;;;;;;;4999002;28;20285;-69
2021/11/24 11:42:44;;;;;;;2.03;1.87;;;;;;;;;;5002667;28;20202;-69
2021/11/24 11:45:12;;;;;;;3.40;1.77;;;;;;;;;;4997602;28;20217;-72
2021/11/24 11:47:48;;;;;;;4.15;1.90;;;;;;;;;;5014752;28;20199;-70
2021/11/24 11:50:34;;;;;;;2.03;1.70;;;;;;;;;;5001838;28;20227;-70
2021/11/24 11:53:29;;;;;;;2.40;1.20;;;;;;;;;;5013773;28;20630;-71
2021/11/24 11:56:11;;;;;;;2.20;1.20;;;;;;;;;;4991485;28;20218;-70
2021/11/24 11:59:01;;;;;;;2.78;0.95;;;;;;;;;;5005866;28;20290;-70
2021/11/24 12:01:51;;;;;;;1.10;0.68;;;;;;;;;;5011539;28;20666;-70
2021/11/24 12:04:19;;;;;;;0.30;0.30;;;;;;;;;;5006597;28;20186;-70
2021/11/24 12:06:51;;;;;;;0.35;0.10;;;;;;;;;;4999242;28;20234;-70
2021/11/24 12:09:23;;;;;;;2.55;0.20;;;;;;;;;;5005443;28;20569;-70
2021/11/24 12:12:07;;;;;;;1.23;0.28;;;;;;;;;;4994274;28;20366;-70
2021/11/24 12:14:39;;;;;;;1.15;0.30;;;;;;;;;;5008696;28;20615;-70
2021/11/24 12:17:31;;;;;;;2.08;0.30;;;;;;;;;;4999228;28;20648;-70
2021/11/24 12:20:12;;;;;;;1.05;0.28;;;;;;;;;;5004991;28;20271;-71
2021/11/24 12:22:50;;;;;;;0.00;0.00;;;;;;;;;;4994904;28;20198;-70
2021/11/24 12:25:25;;;;;;;0.57;0.00;;;;;;;;;;5003335;28;20195;-70
2021/11/24 12:27:51;;;;;;;1.17;0.20;;;;;;;;;;4994673;28;20285;-70
2021/11/24 12:33:30;;;;;;;0.30;0.10;;;;;;;;;;4997048;28;20629;-70
2021/11/24 12:36:03;;;;;;;0.77;0.10;;;;;;;;;;5003184;28;20186;-70
2021/11/24 12:38:48;;;;;;;0.00;0.00;;;;;;;;;;4997366;28;20252;-70
2021/11/24 12:41:19;;;;;;;1.00;0.10;;;;;;;;;;5003276;28;20297;-70
2021/11/24 12:43:47;;;;;;;0.20;0.10;;;;;;;;;;5006429;28;20207;-70
2021/11/24 12:46:18;;;;;;;0.93;0.10;;;;;;;;;;5006840;28;20281;-70
2021/11/24 12:49:02;;;;;;;2.00;0.10;;;;;;;;;;4998531;28;20510;-71
2021/11/24 12:51:28;;;;;;;1.23;0.20;;;;;;;;;;5005935;28;20190;-70
2021/11/24 12:54:21;;;;;;;0.70;0.30;;;;;;;;;;5008371;28;20546;-71
2021/11/24 12:56:49;;;;;;;0.50;0.20;;;;;;;;;;5008571;28;20202;-70
2021/11/24 12:59:20;;;;;;;0.47;0.20;;;;;;;;;;5003119;28;20207;-70
2021/11/24 13:01:52;;;;;;;0.60;0.20;;;;;;;;;;5009212;28;20638;-70
2021/11/24 13:04:21;;;;;;;0.33;0.20;;;;;;;;;;5000021;28;20195;-71
2021/11/24 13:06:52;;;;;;;0.40;0.20;;;;;;;;;;4997990;28;20694;-71
2021/11/24 13:09:17;;;;;;;0.60;0.30;;;;;;;;;;4997017;28;20596;-71
2021/11/24 13:11:55;;;;;;;0.67;0.30;;;;;;;;;;5006538;28;20290;-71
2021/11/24 13:14:24;;;;;;;0.70;0.53;;;;;;;;;;4996204;28;20220;-71
2021/11/24 13:17:04;;;;;;;1.90;0.57;;;;;;;;;;5014764;28;20531;-70
2021/11/24 13:19:37;;;;;;;0.50;0.30;;;;;;;;;;4997128;28;20202;-70
2021/11/24 13:22:05;;;;;;;0.47;0.30;;;;;;;;;;5008250;28;20286;-71
2021/11/24 13:24:31;;;;;;;0.87;0.40;;;;;;;;;;5001884;28;20194;-70
2021/11/24 13:26:56;;;;;;;1.97;0.50;;;;;;;;;;5006050;28;20194;-70
2021/11/24 13:29:28;;;;;;;0.53;0.40;;;;;;;;;;5010006;28;20236;-70
2021/11/24 13:32:03;;;;;;;1.07;0.60;;;;;;;;;;5000950;28;20240;-70
2021/11/24 13:34:28;;;;;;;0.63;0.53;;;;;;;;;;5005538;28;20186;-70
2021/11/24 13:36:54;;;;;;;1.35;0.65;;;;;;;;;;4998429;28;20662;-70
2021/11/24 13:39:29;;;;;;;5.13;0.70;;;;;;;;;;5005355;28;20182;-70
2021/11/24 13:42:12;;;;;;;7.23;0.93;;;;;;;;;;4998757;28;20303;-70
2021/11/24 13:44:51;;;;;;;1.80;0.70;;;;;;;;;;5015555;28;20320;-70
2021/11/24 13:47:29;;;;;;;2.70;0.80;;;;;;;;;;4998061;28;20295;-70
2021/11/24 13:49:57;;;;;;;1.85;0.80;;;;;;;;;;5005392;28;20206;-70
2021/11/24 13:52:30;;;;;;;1.40;0.63;;;;;;;;;;4996372;28;20190;-70
2021/11/24 13:54:57;;;;;;;1.10;0.67;;;;;;;;;;5010826;28;20190;-71
2021/11/24 13:57:26;;;;;;;1.10;1.00;;;;;;;;;;4995467;28;20198;-70
2021/11/24 14:00:08;;;;;;;5.27;1.30;;;;;;;;;;5002358;28;20183;-71
2021/11/24 14:02:33;;;;;;;2.90;1.10;;;;;;;;;;4998837;28;20208;-70
2021/11/24 14:05:08;;;;;;;1.37;1.00;;;;;;;;;;5002299;28;20187;-70
2021/11/24 14:07:37;;;;;;;4.27;1.07;;;;;;;;;;4996473;28;20749;-70
2021/11/24 14:10:23;;;;;;;1.33;1.00;;;;;;;;;;5005333;28;20329;-70
2021/11/24 14:12:50;;;;;;;0.70;0.60;;;;;;;;;;5003402;28;20190;-70
2021/11/24 14:15:23;;;;;;;0.40;0.40;;;;;;;;;;5009930;28;20194;-71
2021/11/24 14:17:54;;;;;;;0.88;0.70;;;;;;;;;;5005546;28;20198;-71
2021/11/24 14:20:22;;;;;;;1.33;0.83;;;;;;;;;;5007327;28;20187;-71
2021/11/24 14:23:00;;;;;;;1.00;0.77;;;;;;;;;;4993209;28;20556;-70
2021/11/24 14:25:49;;;;;;;0.93;0.80;;;;;;;;;;5000103;28;20189;-70
2021/11/24 14:28:22;;;;;;;1.67;1.10;;;;;;;;;;4998488;28;20561;-70
2021/11/24 14:30:49;;;;;;;0.40;0.30;;;;;;;;;;5012804;28;20265;-70
2021/11/24 14:33:17;;;;;;;0.60;0.40;;;;;;;;;;5000441;28;20682;-70